sensor_id;sensor_type;location;lat;lon;timestamp;P1;durP1;ratioP1;P2;durP2;ratioP2
66342;SDS011;53144;51.524;5.080;2023-07-20T00:02:17;13.18;;;4.72;;
66342;SDS011;53144;51.524;5.080;2023-07-20T00:04:43;17.35;;;5.15;;
66342;SDS011;53144;51.524;5.080;2023-07-20T00:07:08;13.95;;;5.82;;
66342;SDS011;53144;51.524;5.080;2023-07-20T00:09:33;12.63;;;5.20;;
66342;SDS011;53144;51.524;5.080;2023-07-20T00:11:59;13.07;;;5.70;;
66342;SDS011;53144;51.524;5.080;2023-07-20T00:14:25;13.57;;;5.68;;
66342;SDS011;53144;51.524;5.080;2023-07-20T00:16:51;15.23;;;5.15;;
66342;SDS011;53144;51.524;5.080;2023-07-20T00:19:24;10.52;;;4.90;;
66342;SDS011;53144;51.524;5.080;2023-07-20T00:21:50;11.80;;;5.03;;
66342;SDS011;53144;51.524;5.080;2023-07-20T00:24:16;14.02;;;5.30;;
66342;SDS011;53144;51.524;5.080;2023-07-20T00:26:42;12.55;;;5.40;;
66342;SDS011;53144;51.524;5.080;2023-07-20T00:29:07;12.77;;;5.70;;
66342;SDS011;53144;51.524;5.080;2023-07-20T00:31:33;12.23;;;4.78;;
66342;SDS011;53144;51.524;5.080;2023-07-20T00:34:00;10.48;;;5.45;;
66342;SDS011;53144;51.524;5.080;2023-07-20T00:36:25;12.65;;;5.93;;
66342;SDS011;53144;51.524;5.080;2023-07-20T00:38:51;11.10;;;5.65;;
66342;SDS011;53144;51.524;5.080;2023-07-20T00:41:16;17.15;;;5.80;;
66342;SDS011;53144;51.524;5.080;2023-07-20T00:43:42;13.48;;;5.63;;
66342;SDS011;53144;51.524;5.080;2023-07-20T00:46:07;14.07;;;5.57;;
66342;SDS011;53144;51.524;5.080;2023-07-20T00:48:34;11.93;;;5.20;;
66342;SDS011;53144;51.524;5.080;2023-07-20T00:51:00;8.52;;;5.07;;
66342;SDS011;53144;51.524;5.080;2023-07-20T00:53:27;11.00;;;4.95;;
66342;SDS011;53144;51.524;5.080;2023-07-20T00:55:52;13.45;;;5.40;;
66342;SDS011;53144;51.524;5.080;2023-07-20T00:58:18;11.15;;;5.13;;
66342;SDS011;53144;51.524;5.080;2023-07-20T01:00:44;11.05;;;4.90;;
66342;SDS011;53144;51.524;5.080;2023-07-20T01:03:09;9.73;;;4.70;;
66342;SDS011;53144;51.524;5.080;2023-07-20T01:05:45;8.15;;;5.22;;
66342;SDS011;53144;51.524;5.080;2023-07-20T01:09:02;13.00;;;5.07;;
66342;SDS011;53144;51.524;5.080;2023-07-20T01:14:05;10.43;;;5.10;;
66342;SDS011;53144;51.524;5.080;2023-07-20T01:16:31;14.25;;;5.63;;
66342;SDS011;53144;51.524;5.080;2023-07-20T01:18:57;16.27;;;6.68;;
66342;SDS011;53144;51.524;5.080;2023-07-20T01:21:28;13.40;;;7.43;;
66342;SDS011;53144;51.524;5.080;2023-07-20T01:33:00;13.15;;;8.20;;
66342;SDS011;53144;51.524;5.080;2023-07-20T01:35:28;10.23;;;8.35;;
66342;SDS011;53144;51.524;5.080;2023-07-20T01:37:55;11.60;;;8.65;;
66342;SDS011;53144;51.524;5.080;2023-07-20T01:40:22;11.60;;;8.23;;
66342;SDS011;53144;51.524;5.080;2023-07-20T01:42:50;11.00;;;7.93;;
66342;SDS011;53144;51.524;5.080;2023-07-20T01:45:16;12.35;;;8.32;;
66342;SDS011;53144;51.524;5.080;2023-07-20T01:47:42;12.80;;;8.07;;
66342;SDS011;53144;51.524;5.080;2023-07-20T01:50:07;16.55;;;8.63;;
66342;SDS011;53144;51.524;5.080;2023-07-20T01:52:33;9.70;;;8.13;;
66342;SDS011;53144;51.524;5.080;2023-07-20T01:54:59;11.65;;;9.77;;
66342;SDS011;53144;51.524;5.080;2023-07-20T01:57:24;14.80;;;10.57;;
66342;SDS011;53144;51.524;5.080;2023-07-20T01:59:49;13.73;;;9.98;;
66342;SDS011;53144;51.524;5.080;2023-07-20T02:02:15;17.20;;;12.50;;
66342;SDS011;53144;51.524;5.080;2023-07-20T02:04:40;16.52;;;12.32;;
66342;SDS011;53144;51.524;5.080;2023-07-20T02:07:06;15.57;;;12.00;;
66342;SDS011;53144;51.524;5.080;2023-07-20T02:09:31;15.18;;;12.57;;
66342;SDS011;53144;51.524;5.080;2023-07-20T02:11:56;17.65;;;12.32;;
66342;SDS011;53144;51.524;5.080;2023-07-20T02:14:22;16.63;;;12.70;;
66342;SDS011;53144;51.524;5.080;2023-07-20T02:16:48;16.80;;;13.27;;
66342;SDS011;53144;51.524;5.080;2023-07-20T02:19:17;18.98;;;13.57;;
66342;SDS011;53144;51.524;5.080;2023-07-20T02:21:44;16.60;;;13.18;;
66342;SDS011;53144;51.524;5.080;2023-07-20T02:24:09;15.30;;;12.80;;
66342;SDS011;53144;51.524;5.080;2023-07-20T02:26:35;18.23;;;13.18;;
66342;SDS011;53144;51.524;5.080;2023-07-20T02:29:00;18.63;;;14.02;;
66342;SDS011;53144;51.524;5.080;2023-07-20T02:31:28;17.85;;;13.73;;
66342;SDS011;53144;51.524;5.080;2023-07-20T02:33:54;19.83;;;14.20;;
66342;SDS011;53144;51.524;5.080;2023-07-20T02:36:19;19.38;;;15.00;;
66342;SDS011;53144;51.524;5.080;2023-07-20T02:38:45;18.30;;;14.32;;
66342;SDS011;53144;51.524;5.080;2023-07-20T02:41:10;23.10;;;15.82;;
66342;SDS011;53144;51.524;5.080;2023-07-20T02:43:35;21.05;;;15.85;;
66342;SDS011;53144;51.524;5.080;2023-07-20T02:46:01;22.38;;;16.70;;
66342;SDS011;53144;51.524;5.080;2023-07-20T02:48:26;24.65;;;16.55;;
66342;SDS011;53144;51.524;5.080;2023-07-20T02:50:52;20.25;;;15.55;;
66342;SDS011;53144;51.524;5.080;2023-07-20T02:53:17;23.10;;;16.25;;
66342;SDS011;53144;51.524;5.080;2023-07-20T02:55:43;19.25;;;14.98;;
66342;SDS011;53144;51.524;5.080;2023-07-20T02:58:08;20.92;;;15.43;;
66342;SDS011;53144;51.524;5.080;2023-07-20T03:00:33;18.45;;;13.98;;
66342;SDS011;53144;51.524;5.080;2023-07-20T03:02:59;20.15;;;15.52;;
66342;SDS011;53144;51.524;5.080;2023-07-20T03:05:24;19.92;;;14.05;;
66342;SDS011;53144;51.524;5.080;2023-07-20T03:07:53;19.58;;;14.25;;
66342;SDS011;53144;51.524;5.080;2023-07-20T03:10:18;21.65;;;14.90;;
66342;SDS011;53144;51.524;5.080;2023-07-20T03:12:44;19.13;;;13.90;;
66342;SDS011;53144;51.524;5.080;2023-07-20T03:15:09;17.45;;;13.95;;
66342;SDS011;53144;51.524;5.080;2023-07-20T03:17:35;18.63;;;14.52;;
66342;SDS011;53144;51.524;5.080;2023-07-20T03:20:00;18.52;;;13.90;;
66342;SDS011;53144;51.524;5.080;2023-07-20T03:22:26;18.60;;;13.70;;
66342;SDS011;53144;51.524;5.080;2023-07-20T03:24:51;17.35;;;14.23;;
66342;SDS011;53144;51.524;5.080;2023-07-20T03:27:17;18.95;;;13.52;;
66342;SDS011;53144;51.524;5.080;2023-07-20T03:29:43;15.88;;;13.52;;
66342;SDS011;53144;51.524;5.080;2023-07-20T03:32:09;18.88;;;13.52;;
66342;SDS011;53144;51.524;5.080;2023-07-20T03:34:34;18.33;;;13.93;;
66342;SDS011;53144;51.524;5.080;2023-07-20T03:37:00;18.88;;;13.73;;
66342;SDS011;53144;51.524;5.080;2023-07-20T03:39:26;18.83;;;13.73;;
66342;SDS011;53144;51.524;5.080;2023-07-20T03:41:51;18.50;;;13.75;;
66342;SDS011;53144;51.524;5.080;2023-07-20T03:44:17;17.70;;;14.75;;
66342;SDS011;53144;51.524;5.080;2023-07-20T03:46:42;17.92;;;14.02;;
66342;SDS011;53144;51.524;5.080;2023-07-20T03:49:08;17.23;;;13.68;;
66342;SDS011;53144;51.524;5.080;2023-07-20T03:51:35;19.83;;;13.93;;
66342;SDS011;53144;51.524;5.080;2023-07-20T03:54:00;18.52;;;13.00;;
66342;SDS011;53144;51.524;5.080;2023-07-20T03:56:26;16.77;;;13.00;;
66342;SDS011;53144;51.524;5.080;2023-07-20T03:58:51;14.40;;;11.63;;
66342;SDS011;53144;51.524;5.080;2023-07-20T04:01:17;15.57;;;11.60;;
66342;SDS011;53144;51.524;5.080;2023-07-20T04:03:42;14.38;;;10.27;;
66342;SDS011;53144;51.524;5.080;2023-07-20T04:06:08;14.60;;;10.82;;
66342;SDS011;53144;51.524;5.080;2023-07-20T04:08:35;11.40;;;10.20;;
66342;SDS011;53144;51.524;5.080;2023-07-20T04:11:01;14.65;;;10.93;;
66342;SDS011;53144;51.524;5.080;2023-07-20T04:13:27;14.85;;;9.68;;
66342;SDS011;53144;51.524;5.080;2023-07-20T04:15:53;13.55;;;9.38;;
66342;SDS011;53144;51.524;5.080;2023-07-20T04:18:18;12.18;;;9.35;;
66342;SDS011;53144;51.524;5.080;2023-07-20T04:20:44;11.45;;;8.80;;
66342;SDS011;53144;51.524;5.080;2023-07-20T04:23:10;12.50;;;8.63;;
66342;SDS011;53144;51.524;5.080;2023-07-20T04:25:35;12.45;;;7.80;;
66342;SDS011;53144;51.524;5.080;2023-07-20T04:28:06;10.50;;;7.75;;
66342;SDS011;53144;51.524;5.080;2023-07-20T04:30:35;8.45;;;7.03;;
66342;SDS011;53144;51.524;5.080;2023-07-20T04:33:02;8.60;;;6.95;;
66342;SDS011;53144;51.524;5.080;2023-07-20T04:35:47;9.60;;;6.60;;
66342;SDS011;53144;51.524;5.080;2023-07-20T04:38:15;8.05;;;6.40;;
66342;SDS011;53144;51.524;5.080;2023-07-20T04:40:42;9.27;;;6.10;;
66342;SDS011;53144;51.524;5.080;2023-07-20T04:43:11;9.30;;;6.72;;
66342;SDS011;53144;51.524;5.080;2023-07-20T04:45:36;14.50;;;7.00;;
66342;SDS011;53144;51.524;5.080;2023-07-20T04:48:02;8.45;;;5.93;;
66342;SDS011;53144;51.524;5.080;2023-07-20T04:50:27;12.07;;;6.80;;
66342;SDS011;53144;51.524;5.080;2023-07-20T04:52:53;8.85;;;6.28;;
66342;SDS011;53144;51.524;5.080;2023-07-20T04:55:18;8.68;;;5.80;;
66342;SDS011;53144;51.524;5.080;2023-07-20T04:57:44;8.20;;;5.43;;
66342;SDS011;53144;51.524;5.080;2023-07-20T05:00:09;6.47;;;5.30;;
66342;SDS011;53144;51.524;5.080;2023-07-20T05:02:36;7.57;;;5.85;;
66342;SDS011;53144;51.524;5.080;2023-07-20T05:05:03;8.45;;;5.63;;
66342;SDS011;53144;51.524;5.080;2023-07-20T05:07:30;6.53;;;5.25;;
66342;SDS011;53144;51.524;5.080;2023-07-20T05:09:56;8.50;;;5.35;;
66342;SDS011;53144;51.524;5.080;2023-07-20T05:12:22;8.98;;;4.80;;
66342;SDS011;53144;51.524;5.080;2023-07-20T05:14:47;5.45;;;4.95;;
66342;SDS011;53144;51.524;5.080;2023-07-20T05:17:12;6.80;;;4.50;;
66342;SDS011;53144;51.524;5.080;2023-07-20T05:19:38;8.10;;;4.40;;
66342;SDS011;53144;51.524;5.080;2023-07-20T05:22:03;5.03;;;4.30;;
66342;SDS011;53144;51.524;5.080;2023-07-20T05:24:30;6.60;;;4.05;;
66342;SDS011;53144;51.524;5.080;2023-07-20T05:26:56;5.95;;;4.90;;
66342;SDS011;53144;51.524;5.080;2023-07-20T05:29:21;5.15;;;4.65;;
66342;SDS011;53144;51.524;5.080;2023-07-20T05:31:46;5.70;;;5.10;;
66342;SDS011;53144;51.524;5.080;2023-07-20T05:34:12;6.05;;;4.90;;
66342;SDS011;53144;51.524;5.080;2023-07-20T05:36:37;6.55;;;5.20;;
66342;SDS011;53144;51.524;5.080;2023-07-20T05:39:02;5.40;;;4.90;;
66342;SDS011;53144;51.524;5.080;2023-07-20T05:41:28;6.47;;;4.30;;
66342;SDS011;53144;51.524;5.080;2023-07-20T05:43:53;4.78;;;4.05;;
66342;SDS011;53144;51.524;5.080;2023-07-20T05:46:19;5.88;;;4.45;;
66342;SDS011;53144;51.524;5.080;2023-07-20T05:48:44;6.53;;;4.05;;
66342;SDS011;53144;51.524;5.080;2023-07-20T05:51:09;3.75;;;3.33;;
66342;SDS011;53144;51.524;5.080;2023-07-20T05:53:35;4.90;;;3.67;;
66342;SDS011;53144;51.524;5.080;2023-07-20T05:56:01;4.32;;;3.10;;
66342;SDS011;53144;51.524;5.080;2023-07-20T05:58:28;3.53;;;2.95;;
66342;SDS011;53144;51.524;5.080;2023-07-20T06:00:53;4.78;;;3.50;;
66342;SDS011;53144;51.524;5.080;2023-07-20T06:03:22;3.85;;;2.90;;
66342;SDS011;53144;51.524;5.080;2023-07-20T06:05:48;3.95;;;2.60;;
66342;SDS011;53144;51.524;5.080;2023-07-20T06:08:13;4.18;;;2.80;;
66342;SDS011;53144;51.524;5.080;2023-07-20T06:10:39;4.90;;;2.55;;
66342;SDS011;53144;51.524;5.080;2023-07-20T06:13:04;2.80;;;2.05;;
66342;SDS011;53144;51.524;5.080;2023-07-20T06:15:33;3.30;;;2.33;;
66342;SDS011;53144;51.524;5.080;2023-07-20T06:18:01;2.90;;;2.22;;
66342;SDS011;53144;51.524;5.080;2023-07-20T06:20:28;5.53;;;1.98;;
66342;SDS011;53144;51.524;5.080;2023-07-20T06:22:54;3.28;;;1.83;;
66342;SDS011;53144;51.524;5.080;2023-07-20T06:25:19;2.30;;;1.77;;
66342;SDS011;53144;51.524;5.080;2023-07-20T06:27:46;4.50;;;1.58;;
66342;SDS011;53144;51.524;5.080;2023-07-20T06:30:11;3.08;;;1.40;;
66342;SDS011;53144;51.524;5.080;2023-07-20T06:32:37;1.20;;;1.10;;
66342;SDS011;53144;51.524;5.080;2023-07-20T06:35:03;1.98;;;1.40;;
66342;SDS011;53144;51.524;5.080;2023-07-20T06:37:29;2.30;;;1.30;;
66342;SDS011;53144;51.524;5.080;2023-07-20T06:39:54;5.78;;;1.70;;
66342;SDS011;53144;51.524;5.080;2023-07-20T06:42:20;3.38;;;2.15;;
66342;SDS011;53144;51.524;5.080;2023-07-20T06:44:45;2.17;;;1.58;;
66342;SDS011;53144;51.524;5.080;2023-07-20T06:47:11;2.45;;;1.88;;
66342;SDS011;53144;51.524;5.080;2023-07-20T06:49:37;3.70;;;2.10;;
66342;SDS011;53144;51.524;5.080;2023-07-20T06:52:02;3.20;;;2.00;;
66342;SDS011;53144;51.524;5.080;2023-07-20T06:54:28;4.50;;;2.17;;
66342;SDS011;53144;51.524;5.080;2023-07-20T06:56:53;1.98;;;1.60;;
66342;SDS011;53144;51.524;5.080;2023-07-20T06:59:19;1.73;;;1.55;;
66342;SDS011;53144;51.524;5.080;2023-07-20T07:01:44;2.25;;;2.00;;
66342;SDS011;53144;51.524;5.080;2023-07-20T07:04:10;3.03;;;1.75;;
66342;SDS011;53144;51.524;5.080;2023-07-20T07:06:36;2.53;;;1.70;;
66342;SDS011;53144;51.524;5.080;2023-07-20T07:09:02;2.97;;;1.70;;
66342;SDS011;53144;51.524;5.080;2023-07-20T07:11:28;3.90;;;1.60;;
66342;SDS011;53144;51.524;5.080;2023-07-20T07:13:54;5.35;;;1.90;;
66342;SDS011;53144;51.524;5.080;2023-07-20T07:16:19;3.33;;;1.88;;
66342;SDS011;53144;51.524;5.080;2023-07-20T07:18:45;3.25;;;1.80;;
66342;SDS011;53144;51.524;5.080;2023-07-20T07:21:13;2.25;;;1.80;;
66342;SDS011;53144;51.524;5.080;2023-07-20T07:23:39;1.50;;;1.40;;
66342;SDS011;53144;51.524;5.080;2023-07-20T07:26:05;2.33;;;1.40;;
66342;SDS011;53144;51.524;5.080;2023-07-20T07:28:31;1.52;;;1.40;;
66342;SDS011;53144;51.524;5.080;2023-07-20T07:30:59;1.30;;;1.08;;
66342;SDS011;53144;51.524;5.080;2023-07-20T07:33:26;9.73;;;1.10;;
66342;SDS011;53144;51.524;5.080;2023-07-20T07:35:51;2.85;;;1.40;;
66342;SDS011;53144;51.524;5.080;2023-07-20T07:38:18;1.27;;;1.17;;
66342;SDS011;53144;51.524;5.080;2023-07-20T07:40:44;2.35;;;1.50;;
66342;SDS011;53144;51.524;5.080;2023-07-20T07:43:10;1.23;;;1.10;;
66342;SDS011;53144;51.524;5.080;2023-07-20T07:45:37;1.65;;;1.15;;
66342;SDS011;53144;51.524;5.080;2023-07-20T07:48:03;1.48;;;1.13;;
66342;SDS011;53144;51.524;5.080;2023-07-20T07:50:29;2.45;;;1.00;;
66342;SDS011;53144;51.524;5.080;2023-07-20T07:52:54;1.30;;;1.10;;
66342;SDS011;53144;51.524;5.080;2023-07-20T07:55:20;2.92;;;1.20;;
66342;SDS011;53144;51.524;5.080;2023-07-20T07:57:45;1.95;;;0.98;;
66342;SDS011;53144;51.524;5.080;2023-07-20T08:00:12;1.98;;;1.05;;
66342;SDS011;53144;51.524;5.080;2023-07-20T08:02:42;2.28;;;1.00;;
66342;SDS011;53144;51.524;5.080;2023-07-20T08:05:08;1.70;;;0.90;;
66342;SDS011;53144;51.524;5.080;2023-07-20T08:07:34;1.25;;;0.80;;
66342;SDS011;53144;51.524;5.080;2023-07-20T08:09:59;1.08;;;0.90;;
66342;SDS011;53144;51.524;5.080;2023-07-20T08:12:25;2.50;;;1.05;;
66342;SDS011;53144;51.524;5.080;2023-07-20T08:14:51;1.73;;;1.17;;
66342;SDS011;53144;51.524;5.080;2023-07-20T08:17:16;1.90;;;1.05;;
66342;SDS011;53144;51.524;5.080;2023-07-20T08:19:42;0.88;;;0.77;;
66342;SDS011;53144;51.524;5.080;2023-07-20T08:22:09;1.27;;;0.85;;
66342;SDS011;53144;51.524;5.080;2023-07-20T08:24:35;4.18;;;1.00;;
66342;SDS011;53144;51.524;5.080;2023-07-20T08:27:05;0.90;;;0.90;;
66342;SDS011;53144;51.524;5.080;2023-07-20T08:29:30;1.95;;;1.13;;
66342;SDS011;53144;51.524;5.080;2023-07-20T08:31:56;2.35;;;1.02;;
66342;SDS011;53144;51.524;5.080;2023-07-20T08:34:21;0.80;;;0.80;;
66342;SDS011;53144;51.524;5.080;2023-07-20T08:36:46;1.25;;;1.00;;
66342;SDS011;53144;51.524;5.080;2023-07-20T08:39:12;0.70;;;0.70;;
66342;SDS011;53144;51.524;5.080;2023-07-20T08:41:37;1.33;;;1.00;;
66342;SDS011;53144;51.524;5.080;2023-07-20T08:44:04;1.45;;;0.90;;
66342;SDS011;53144;51.524;5.080;2023-07-20T08:46:30;1.33;;;0.95;;
66342;SDS011;53144;51.524;5.080;2023-07-20T08:48:57;1.23;;;0.82;;
66342;SDS011;53144;51.524;5.080;2023-07-20T08:51:23;0.85;;;0.75;;
66342;SDS011;53144;51.524;5.080;2023-07-20T08:53:50;0.75;;;0.75;;
66342;SDS011;53144;51.524;5.080;2023-07-20T08:56:16;1.05;;;0.77;;
66342;SDS011;53144;51.524;5.080;2023-07-20T08:58:44;2.10;;;0.95;;
66342;SDS011;53144;51.524;5.080;2023-07-20T09:01:11;1.20;;;1.10;;
66342;SDS011;53144;51.524;5.080;2023-07-20T09:03:37;1.67;;;0.90;;
66342;SDS011;53144;51.524;5.080;2023-07-20T09:06:05;3.80;;;0.90;;
66342;SDS011;53144;51.524;5.080;2023-07-20T09:08:31;1.30;;;1.00;;
66342;SDS011;53144;51.524;5.080;2023-07-20T09:10:56;1.50;;;1.10;;
66342;SDS011;53144;51.524;5.080;2023-07-20T09:13:22;1.60;;;1.00;;
66342;SDS011;53144;51.524;5.080;2023-07-20T09:15:53;0.80;;;0.70;;
66342;SDS011;53144;51.524;5.080;2023-07-20T09:18:26;1.52;;;1.02;;
66342;SDS011;53144;51.524;5.080;2023-07-20T09:21:03;1.83;;;1.10;;
66342;SDS011;53144;51.524;5.080;2023-07-20T09:26:00;1.13;;;0.95;;
66342;SDS011;53144;51.524;5.080;2023-07-20T09:28:26;2.03;;;1.27;;
66342;SDS011;53144;51.524;5.080;2023-07-20T09:30:53;3.97;;;1.10;;
66342;SDS011;53144;51.524;5.080;2023-07-20T09:33:23;1.95;;;1.05;;
66342;SDS011;53144;51.524;5.080;2023-07-20T09:35:48;0.80;;;0.80;;
66342;SDS011;53144;51.524;5.080;2023-07-20T09:38:14;1.85;;;0.98;;
66342;SDS011;53144;51.524;5.080;2023-07-20T09:40:40;1.67;;;1.10;;
66342;SDS011;53144;51.524;5.080;2023-07-20T09:43:10;1.25;;;1.00;;
66342;SDS011;53144;51.524;5.080;2023-07-20T09:45:39;4.65;;;1.23;;
66342;SDS011;53144;51.524;5.080;2023-07-20T09:48:06;1.48;;;1.00;;
66342;SDS011;53144;51.524;5.080;2023-07-20T09:50:33;1.58;;;0.90;;
66342;SDS011;53144;51.524;5.080;2023-07-20T09:53:00;1.25;;;1.00;;
66342;SDS011;53144;51.524;5.080;2023-07-20T09:55:27;1.60;;;1.10;;
66342;SDS011;53144;51.524;5.080;2023-07-20T09:57:54;1.98;;;1.10;;
66342;SDS011;53144;51.524;5.080;2023-07-20T10:00:21;3.30;;;1.00;;
66342;SDS011;53144;51.524;5.080;2023-07-20T10:02:47;2.10;;;1.05;;
66342;SDS011;53144;51.524;5.080;2023-07-20T10:05:17;2.70;;;1.20;;
66342;SDS011;53144;51.524;5.080;2023-07-20T10:07:44;1.75;;;1.00;;
66342;SDS011;53144;51.524;5.080;2023-07-20T10:10:13;1.02;;;0.90;;
66342;SDS011;53144;51.524;5.080;2023-07-20T10:12:39;2.95;;;0.90;;
66342;SDS011;53144;51.524;5.080;2023-07-20T10:15:10;0.98;;;0.98;;
66342;SDS011;53144;51.524;5.080;2023-07-20T10:20:37;2.13;;;1.08;;
66342;SDS011;53144;51.524;5.080;2023-07-20T10:23:06;2.13;;;0.93;;
66342;SDS011;53144;51.524;5.080;2023-07-20T10:25:32;1.58;;;1.10;;
66342;SDS011;53144;51.524;5.080;2023-07-20T10:28:02;1.40;;;1.10;;
66342;SDS011;53144;51.524;5.080;2023-07-20T10:30:29;4.38;;;1.08;;
66342;SDS011;53144;51.524;5.080;2023-07-20T10:32:55;1.58;;;0.93;;
66342;SDS011;53144;51.524;5.080;2023-07-20T10:35:21;3.00;;;0.80;;
66342;SDS011;53144;51.524;5.080;2023-07-20T10:43:08;1.63;;;1.13;;
66342;SDS011;53144;51.524;5.080;2023-07-20T10:45:53;1.38;;;1.10;;
66342;SDS011;53144;51.524;5.080;2023-07-20T10:48:19;1.50;;;1.13;;
66342;SDS011;53144;51.524;5.080;2023-07-20T10:51:08;0.93;;;0.93;;
66342;SDS011;53144;51.524;5.080;2023-07-20T10:53:35;1.52;;;1.30;;
66342;SDS011;53144;51.524;5.080;2023-07-20T10:56:14;4.18;;;1.17;;
66342;SDS011;53144;51.524;5.080;2023-07-20T10:58:44;3.40;;;0.90;;
66342;SDS011;53144;51.524;5.080;2023-07-20T11:01:11;2.03;;;1.10;;
66342;SDS011;53144;51.524;5.080;2023-07-20T11:03:39;1.33;;;1.00;;
66342;SDS011;53144;51.524;5.080;2023-07-20T11:08:54;1.10;;;0.98;;
66342;SDS011;53144;51.524;5.080;2023-07-20T11:11:22;3.60;;;1.38;;
66342;SDS011;53144;51.524;5.080;2023-07-20T11:14:01;3.28;;;1.65;;
66342;SDS011;53144;51.524;5.080;2023-07-20T11:19:12;1.50;;;1.17;;
66342;SDS011;53144;51.524;5.080;2023-07-20T11:21:41;1.30;;;1.20;;
66342;SDS011;53144;51.524;5.080;2023-07-20T11:24:08;2.33;;;1.10;;
66342;SDS011;53144;51.524;5.080;2023-07-20T11:29:07;1.42;;;0.90;;
66342;SDS011;53144;51.524;5.080;2023-07-20T11:31:34;1.63;;;1.10;;
66342;SDS011;53144;51.524;5.080;2023-07-20T11:34:01;2.65;;;1.35;;
66342;SDS011;53144;51.524;5.080;2023-07-20T11:36:26;1.75;;;1.40;;
66342;SDS011;53144;51.524;5.080;2023-07-20T11:38:52;1.10;;;1.10;;
66342;SDS011;53144;51.524;5.080;2023-07-20T11:41:19;1.85;;;1.17;;
66342;SDS011;53144;51.524;5.080;2023-07-20T11:43:45;1.45;;;1.20;;
66342;SDS011;53144;51.524;5.080;2023-07-20T11:46:10;1.45;;;1.20;;
66342;SDS011;53144;51.524;5.080;2023-07-20T11:48:36;1.30;;;1.20;;
66342;SDS011;53144;51.524;5.080;2023-07-20T11:51:01;1.75;;;1.50;;
66342;SDS011;53144;51.524;5.080;2023-07-20T11:53:27;3.80;;;1.30;;
66342;SDS011;53144;51.524;5.080;2023-07-20T11:55:52;1.33;;;1.20;;
66342;SDS011;53144;51.524;5.080;2023-07-20T11:58:18;1.88;;;1.67;;
66342;SDS011;53144;51.524;5.080;2023-07-20T12:00:44;1.50;;;1.40;;
66342;SDS011;53144;51.524;5.080;2023-07-20T12:03:11;1.83;;;1.40;;
66342;SDS011;53144;51.524;5.080;2023-07-20T12:05:40;1.40;;;1.30;;
66342;SDS011;53144;51.524;5.080;2023-07-20T12:08:05;4.05;;;1.38;;
66342;SDS011;53144;51.524;5.080;2023-07-20T12:10:31;3.95;;;1.40;;
66342;SDS011;53144;51.524;5.080;2023-07-20T12:13:02;2.15;;;1.50;;
66342;SDS011;53144;51.524;5.080;2023-07-20T12:15:29;3.03;;;1.75;;
66342;SDS011;53144;51.524;5.080;2023-07-20T12:17:59;4.40;;;1.52;;
66342;SDS011;53144;51.524;5.080;2023-07-20T12:22:57;3.10;;;1.80;;
66342;SDS011;53144;51.524;5.080;2023-07-20T12:25:32;2.08;;;1.70;;
66342;SDS011;53144;51.524;5.080;2023-07-20T12:28:10;5.88;;;1.80;;
66342;SDS011;53144;51.524;5.080;2023-07-20T12:30:37;4.00;;;1.48;;
66342;SDS011;53144;51.524;5.080;2023-07-20T12:33:03;1.70;;;1.60;;
66342;SDS011;53144;51.524;5.080;2023-07-20T12:35:29;2.13;;;1.67;;
66342;SDS011;53144;51.524;5.080;2023-07-20T12:37:55;1.90;;;1.77;;
66342;SDS011;53144;51.524;5.080;2023-07-20T12:40:21;1.83;;;1.50;;
66342;SDS011;53144;51.524;5.080;2023-07-20T12:42:46;2.45;;;1.70;;
66342;SDS011;53144;51.524;5.080;2023-07-20T12:45:12;2.28;;;1.75;;
66342;SDS011;53144;51.524;5.080;2023-07-20T12:47:38;2.80;;;1.50;;
66342;SDS011;53144;51.524;5.080;2023-07-20T12:50:04;1.38;;;1.27;;
66342;SDS011;53144;51.524;5.080;2023-07-20T12:52:31;2.85;;;1.80;;
66342;SDS011;53144;51.524;5.080;2023-07-20T12:54:56;1.65;;;1.38;;
66342;SDS011;53144;51.524;5.080;2023-07-20T12:57:23;1.80;;;1.40;;
66342;SDS011;53144;51.524;5.080;2023-07-20T12:59:48;1.63;;;1.40;;
66342;SDS011;53144;51.524;5.080;2023-07-20T13:02:14;2.78;;;1.50;;
66342;SDS011;53144;51.524;5.080;2023-07-20T13:04:39;1.67;;;1.58;;
66342;SDS011;53144;51.524;5.080;2023-07-20T13:07:04;1.60;;;1.50;;
66342;SDS011;53144;51.524;5.080;2023-07-20T13:09:30;2.15;;;1.58;;
66342;SDS011;53144;51.524;5.080;2023-07-20T13:11:55;2.05;;;1.42;;
66342;SDS011;53144;51.524;5.080;2023-07-20T13:14:22;3.35;;;1.48;;
66342;SDS011;53144;51.524;5.080;2023-07-20T13:16:47;5.20;;;1.60;;
66342;SDS011;53144;51.524;5.080;2023-07-20T13:19:12;2.03;;;1.60;;
66342;SDS011;53144;51.524;5.080;2023-07-20T13:21:38;3.55;;;1.40;;
66342;SDS011;53144;51.524;5.080;2023-07-20T13:24:03;1.48;;;1.38;;
66342;SDS011;53144;51.524;5.080;2023-07-20T13:26:29;1.30;;;1.20;;
66342;SDS011;53144;51.524;5.080;2023-07-20T13:28:54;4.20;;;1.60;;
66342;SDS011;53144;51.524;5.080;2023-07-20T13:31:20;2.13;;;1.30;;
66342;SDS011;53144;51.524;5.080;2023-07-20T13:33:45;1.75;;;1.40;;
66342;SDS011;53144;51.524;5.080;2023-07-20T13:36:11;2.92;;;1.75;;
66342;SDS011;53144;51.524;5.080;2023-07-20T13:38:36;2.95;;;1.42;;
66342;SDS011;53144;51.524;5.080;2023-07-20T13:41:02;2.50;;;1.27;;
66342;SDS011;53144;51.524;5.080;2023-07-20T13:43:27;2.90;;;1.50;;
66342;SDS011;53144;51.524;5.080;2023-07-20T13:45:52;6.18;;;1.63;;
66342;SDS011;53144;51.524;5.080;2023-07-20T13:48:18;1.45;;;1.20;;
66342;SDS011;53144;51.524;5.080;2023-07-20T13:50:46;1.83;;;1.35;;
66342;SDS011;53144;51.524;5.080;2023-07-20T13:53:11;1.92;;;1.58;;
66342;SDS011;53144;51.524;5.080;2023-07-20T13:55:38;1.60;;;1.50;;
66342;SDS011;53144;51.524;5.080;2023-07-20T13:58:03;3.95;;;1.50;;
66342;SDS011;53144;51.524;5.080;2023-07-20T14:00:29;2.03;;;1.60;;
66342;SDS011;53144;51.524;5.080;2023-07-20T14:02:58;1.75;;;1.52;;
66342;SDS011;53144;51.524;5.080;2023-07-20T14:05:24;5.38;;;1.45;;
66342;SDS011;53144;51.524;5.080;2023-07-20T14:07:49;1.60;;;1.50;;
66342;SDS011;53144;51.524;5.080;2023-07-20T14:10:15;3.17;;;1.50;;
66342;SDS011;53144;51.524;5.080;2023-07-20T14:12:40;6.88;;;1.55;;
66342;SDS011;53144;51.524;5.080;2023-07-20T14:15:06;10.88;;;1.88;;
66342;SDS011;53144;51.524;5.080;2023-07-20T14:17:31;8.75;;;1.80;;
66342;SDS011;53144;51.524;5.080;2023-07-20T14:19:57;3.22;;;1.85;;
66342;SDS011;53144;51.524;5.080;2023-07-20T14:22:22;5.13;;;1.67;;
66342;SDS011;53144;51.524;5.080;2023-07-20T14:24:48;3.47;;;1.75;;
66342;SDS011;53144;51.524;5.080;2023-07-20T14:27:14;1.60;;;1.50;;
66342;SDS011;53144;51.524;5.080;2023-07-20T14:29:39;4.20;;;1.60;;
66342;SDS011;53144;51.524;5.080;2023-07-20T14:32:05;3.72;;;1.88;;
66342;SDS011;53144;51.524;5.080;2023-07-20T14:34:32;3.78;;;1.70;;
66342;SDS011;53144;51.524;5.080;2023-07-20T14:37:01;6.03;;;1.70;;
66342;SDS011;53144;51.524;5.080;2023-07-20T14:39:26;1.92;;;1.70;;
66342;SDS011;53144;51.524;5.080;2023-07-20T14:41:52;7.60;;;1.70;;
66342;SDS011;53144;51.524;5.080;2023-07-20T14:44:17;5.50;;;1.70;;
66342;SDS011;53144;51.524;5.080;2023-07-20T14:46:43;2.17;;;1.50;;
66342;SDS011;53144;51.524;5.080;2023-07-20T14:49:08;3.10;;;1.90;;
66342;SDS011;53144;51.524;5.080;2023-07-20T14:51:34;2.70;;;1.80;;
66342;SDS011;53144;51.524;5.080;2023-07-20T14:54:01;5.40;;;1.60;;
66342;SDS011;53144;51.524;5.080;2023-07-20T14:56:27;1.67;;;1.50;;
66342;SDS011;53144;51.524;5.080;2023-07-20T14:58:52;1.90;;;1.60;;
66342;SDS011;53144;51.524;5.080;2023-07-20T15:01:17;3.13;;;1.40;;
66342;SDS011;53144;51.524;5.080;2023-07-20T15:03:43;1.65;;;1.55;;
66342;SDS011;53144;51.524;5.080;2023-07-20T15:06:11;3.00;;;1.73;;
66342;SDS011;53144;51.524;5.080;2023-07-20T15:08:37;5.20;;;1.70;;
66342;SDS011;53144;51.524;5.080;2023-07-20T15:11:02;7.22;;;2.00;;